createdAt,value
2018-08-23T00:00:56.729Z,17.80
2018-08-23T00:04:06.243Z,17.90
2018-08-23T00:07:15.259Z,17.80
2018-08-23T00:10:19.506Z,17.80
2018-08-23T00:13:24.027Z,17.80
2018-08-23T00:16:35.158Z,17.80
2018-08-23T00:19:39.416Z,17.80
2018-08-23T00:22:43.912Z,17.80
2018-08-23T00:25:48.131Z,17.80
2018-08-23T00:28:52.395Z,17.80
2018-08-23T00:31:59.383Z,17.80
2018-08-23T00:35:03.643Z,17.80
2018-08-23T00:38:08.527Z,17.80
2018-08-23T00:41:12.765Z,17.80
2018-08-23T00:44:17.004Z,17.70
2018-08-23T00:47:23.498Z,17.70
2018-08-23T00:50:48.945Z,17.60
2018-08-23T00:54:05.060Z,17.50
2018-08-23T00:57:09.254Z,17.50
2018-08-23T01:00:18.018Z,17.40
2018-08-23T01:03:22.305Z,17.30
2018-08-23T01:06:43.244Z,17.20
2018-08-23T01:09:47.506Z,17.20
2018-08-23T01:13:00.657Z,17.10
2018-08-23T01:16:04.913Z,17.10
2018-08-23T01:20:16.969Z,17.10
2018-08-23T01:23:21.394Z,17.10
2018-08-23T01:26:25.617Z,17.10
2018-08-23T01:29:31.389Z,17.00
2018-08-23T01:32:35.613Z,17.10
2018-08-23T01:35:41.885Z,17.10
2018-08-23T01:38:46.113Z,17.10
2018-08-23T01:41:50.375Z,17.10
2018-08-23T01:44:54.596Z,17.10
2018-08-23T01:47:58.819Z,17.20
2018-08-23T01:51:03.089Z,17.20
2018-08-23T01:54:07.338Z,17.20
2018-08-23T01:57:11.581Z,17.20
2018-08-23T02:00:20.036Z,17.20
2018-08-23T02:03:24.266Z,17.30
2018-08-23T02:06:35.046Z,17.30
2018-08-23T02:09:39.290Z,17.30
2018-08-23T02:12:48.874Z,17.40
2018-08-23T02:15:53.113Z,17.40
2018-08-23T02:18:57.329Z,17.40
2018-08-23T02:22:01.559Z,17.40
2018-08-23T02:25:06.380Z,17.50
2018-08-23T02:28:11.697Z,17.50
2018-08-23T02:31:16.011Z,17.50
2018-08-23T02:34:20.277Z,17.50
2018-08-23T02:37:24.818Z,17.60
2018-08-23T02:40:29.102Z,17.60
2018-08-23T02:43:33.345Z,17.50
2018-08-23T02:46:37.600Z,17.50
2018-08-23T02:49:44.404Z,17.50
2018-08-23T02:52:48.697Z,17.50
2018-08-23T02:55:53.858Z,17.60
2018-08-23T02:59:02.282Z,17.70
2018-08-23T03:02:11.468Z,17.70
2018-08-23T03:05:19.864Z,17.70
2018-08-23T03:08:41.237Z,17.60
2018-08-23T03:11:48.794Z,17.70
2018-08-23T03:14:53.358Z,17.70
2018-08-23T03:17:57.731Z,17.70
2018-08-23T03:21:07.350Z,17.70
2018-08-23T03:24:11.845Z,17.70
2018-08-23T03:27:16.154Z,17.80
2018-08-23T03:30:20.935Z,17.80
2018-08-23T03:33:25.303Z,17.80
2018-08-23T03:36:29.654Z,17.80
2018-08-23T03:39:33.905Z,17.80
2018-08-23T03:42:38.181Z,17.80
2018-08-23T03:45:42.433Z,17.80
2018-08-23T03:48:51.790Z,17.80
2018-08-23T03:51:56.062Z,17.80
2018-08-23T03:55:01.636Z,17.80
2018-08-23T03:58:05.994Z,17.80
2018-08-23T04:01:14.257Z,17.90
2018-08-23T04:04:18.528Z,17.90
2018-08-23T04:07:22.789Z,17.90
2018-08-23T04:10:27.062Z,17.90
2018-08-23T04:13:31.339Z,17.90
2018-08-23T04:16:35.601Z,17.90
2018-08-23T04:19:43.161Z,17.90
2018-08-23T04:22:47.523Z,17.90
2018-08-23T04:25:51.723Z,17.90
2018-08-23T04:28:55.993Z,17.90
2018-08-23T04:32:00.361Z,17.90
2018-08-23T04:35:12.212Z,17.90
2018-08-23T04:38:16.470Z,17.90
2018-08-23T04:41:20.727Z,18.00
2018-08-23T04:44:25.011Z,18.00
2018-08-23T04:47:29.286Z,17.90
2018-08-23T04:50:33.601Z,17.90
2018-08-23T04:53:37.854Z,17.90
2018-08-23T04:56:42.121Z,17.90
2018-08-23T04:59:46.387Z,17.90
2018-08-23T05:02:50.726Z,18.00
2018-08-23T05:05:54.981Z,18.00
2018-08-23T05:08:59.233Z,18.00
2018-08-23T05:12:03.485Z,18.00
2018-08-23T05:15:07.761Z,18.10
2018-08-23T05:18:12.064Z,18.10
2018-08-23T05:21:16.345Z,18.10
2018-08-23T05:24:23.809Z,18.10
2018-08-23T05:27:28.069Z,18.10
2018-08-23T05:30:32.320Z,18.20
2018-08-23T05:33:36.559Z,18.20
2018-08-23T05:36:40.837Z,18.20
2018-08-23T05:39:52.870Z,18.30
2018-08-23T05:42:57.402Z,18.20
2018-08-23T05:46:02.310Z,18.30
2018-08-23T05:49:06.998Z,18.40
2018-08-23T05:52:11.261Z,18.40
2018-08-23T05:55:15.557Z,18.40
2018-08-23T05:58:23.801Z,18.50
2018-08-23T06:01:28.066Z,18.50
2018-08-23T06:04:42.293Z,18.60
2018-08-23T06:07:46.573Z,18.60
2018-08-23T06:10:56.282Z,18.60
2018-08-23T06:14:00.562Z,18.70
2018-08-23T06:17:05.525Z,18.70
2018-08-23T06:20:09.805Z,18.70
2018-08-23T06:23:14.452Z,18.80
2018-08-23T06:26:18.678Z,18.80
2018-08-23T06:29:26.365Z,18.90
2018-08-23T06:32:30.613Z,19.00
2018-08-23T06:35:38.143Z,19.10
2018-08-23T06:38:46.453Z,19.10
2018-08-23T06:41:53.712Z,19.10
2018-08-23T06:44:57.925Z,19.20
2018-08-23T06:48:03.778Z,19.30
2018-08-23T06:51:11.257Z,19.30
2018-08-23T06:54:15.517Z,19.30
2018-08-23T06:57:19.775Z,19.40
2018-08-23T07:00:26.259Z,19.40
2018-08-23T07:03:30.536Z,19.50
2018-08-23T07:06:36.260Z,19.70
2018-08-23T07:09:42.364Z,19.80
2018-08-23T07:12:46.619Z,19.80
2018-08-23T07:15:54.972Z,19.90
2018-08-23T07:18:59.199Z,19.90
2018-08-23T07:22:03.657Z,20.00
2018-08-23T07:25:14.122Z,20.10
2018-08-23T07:28:18.342Z,20.10
2018-08-23T07:31:22.632Z,20.20
2018-08-23T07:34:26.844Z,20.40
2018-08-23T07:37:33.361Z,20.40
2018-08-23T07:40:37.602Z,20.50
2018-08-23T07:43:41.822Z,20.40
2018-08-23T07:46:46.054Z,20.50
2018-08-23T07:49:51.304Z,20.50
2018-08-23T07:52:55.987Z,20.50
2018-08-23T07:56:18.856Z,20.40
2018-08-23T07:59:23.174Z,20.40
2018-08-23T08:02:28.444Z,20.30
2018-08-23T08:05:34.761Z,20.40
2018-08-23T08:08:42.614Z,20.40
2018-08-23T08:11:52.878Z,20.40
2018-08-23T08:14:57.644Z,20.40
2018-08-23T08:18:18.430Z,20.50
2018-08-23T08:21:22.689Z,20.50
2018-08-23T08:24:26.941Z,20.50
2018-08-23T08:27:31.291Z,20.70
2018-08-23T08:30:42.517Z,20.70
2018-08-23T08:33:46.750Z,20.80
2018-08-23T08:36:51.008Z,20.70
2018-08-23T08:39:55.289Z,20.80
2018-08-23T08:42:59.521Z,20.90
2018-08-23T08:46:03.782Z,21.00
2018-08-23T08:49:08.017Z,21.40
2018-08-23T08:52:12.263Z,21.60
2018-08-23T08:55:17.677Z,21.70
2018-08-23T08:58:21.909Z,21.80
2018-08-23T09:01:27.194Z,21.70
2018-08-23T09:04:35.345Z,21.70
2018-08-23T09:07:41.426Z,21.70
2018-08-23T09:10:45.685Z,21.60
2018-08-23T09:13:50.265Z,21.60
2018-08-23T09:16:54.749Z,21.70
2018-08-23T09:20:04.626Z,21.90
2018-08-23T09:23:08.893Z,22.10
2018-08-23T09:26:13.127Z,22.30
2018-08-23T09:29:34.512Z,22.50
2018-08-23T09:32:38.897Z,22.30
2018-08-23T09:35:43.154Z,22.00
2018-08-23T09:38:47.433Z,21.80
2018-08-23T09:41:51.657Z,21.90
2018-08-23T09:45:07.597Z,22.10
2018-08-23T09:48:11.873Z,22.10
2018-08-23T09:51:21.795Z,22.00
2018-08-23T09:54:27.977Z,21.70
2018-08-23T09:57:32.265Z,21.50
2018-08-23T10:00:42.629Z,21.30
2018-08-23T10:03:52.177Z,21.20
2018-08-23T10:07:02.848Z,21.00
2018-08-23T10:10:12.388Z,21.00
2018-08-23T10:13:21.933Z,20.90
2018-08-23T10:16:31.489Z,20.80
2018-08-23T10:19:41.037Z,20.70
2018-08-23T10:22:46.274Z,20.70
2018-08-23T10:25:51.743Z,20.50
2018-08-23T10:28:56.154Z,20.40
2018-08-23T10:32:00.472Z,20.30
2018-08-23T10:35:04.790Z,20.30
2018-08-23T10:38:09.145Z,20.30
2018-08-23T10:41:13.433Z,20.30
2018-08-23T10:44:17.747Z,20.30
2018-08-23T10:48:29.098Z,20.30
2018-08-23T10:51:33.382Z,20.30
2018-08-23T10:54:37.642Z,20.10
2018-08-23T10:57:41.948Z,20.10
2018-08-23T11:00:46.193Z,20.20
2018-08-23T11:03:50.428Z,20.20
2018-08-23T11:06:58.997Z,20.20
2018-08-23T11:10:08.395Z,20.30
2018-08-23T11:13:17.965Z,20.30
2018-08-23T11:16:27.513Z,20.40
2018-08-23T11:19:36.995Z,20.50
2018-08-23T11:22:41.249Z,20.70
2018-08-23T11:25:45.505Z,20.70
2018-08-23T11:28:50.421Z,20.80
2018-08-23T11:31:54.668Z,20.80
2018-08-23T11:34:58.959Z,20.90
2018-08-23T11:38:03.267Z,21.00
2018-08-23T11:41:07.509Z,21.10
2018-08-23T11:44:11.750Z,21.00
2018-08-23T11:47:15.984Z,21.10
2018-08-23T11:50:20.225Z,21.20
2018-08-23T11:53:24.562Z,21.30
2018-08-23T11:56:28.723Z,21.40
2018-08-23T11:59:32.965Z,21.40
2018-08-23T12:02:37.212Z,21.30
2018-08-23T12:05:41.452Z,21.30
2018-08-23T12:08:45.791Z,21.40
2018-08-23T12:11:50.030Z,21.40
2018-08-23T12:14:55.188Z,21.40
2018-08-23T12:17:59.694Z,21.40
2018-08-23T12:21:04.082Z,21.40
2018-08-23T12:24:08.306Z,21.40
2018-08-23T12:27:12.573Z,21.40
2018-08-23T12:30:16.830Z,21.50
2018-08-23T12:33:21.112Z,21.60
2018-08-23T12:36:30.479Z,21.60
2018-08-23T12:39:40.113Z,21.60
2018-08-23T12:42:47.458Z,21.50
2018-08-23T12:45:51.719Z,21.50
2018-08-23T12:48:58.804Z,21.50
2018-08-23T12:52:03.085Z,21.60
2018-08-23T12:55:07.443Z,21.70
2018-08-23T12:58:13.311Z,21.70
2018-08-23T13:01:17.808Z,21.60
2018-08-23T13:04:22.131Z,21.70
2018-08-23T13:07:26.394Z,21.60
2018-08-23T13:10:30.765Z,21.70
2018-08-23T13:13:35.049Z,21.80
2018-08-23T13:16:39.329Z,21.80
2018-08-23T13:19:43.627Z,21.80
2018-08-23T13:22:47.947Z,21.80
2018-08-23T13:25:55.650Z,21.80
2018-08-23T13:28:59.911Z,21.70
2018-08-23T13:32:04.242Z,21.80
2018-08-23T13:35:08.494Z,22.00
2018-08-23T13:38:12.765Z,22.10
2018-08-23T13:41:17.101Z,22.10
2018-08-23T13:44:21.370Z,22.10
2018-08-23T13:47:25.656Z,22.00
2018-08-23T13:50:29.928Z,21.90
2018-08-23T13:53:34.209Z,21.80
2018-08-23T13:56:38.805Z,21.80
2018-08-23T13:59:43.301Z,21.80
2018-08-23T14:02:47.635Z,21.90
2018-08-23T14:05:52.241Z,21.90
2018-08-23T14:08:56.554Z,21.90
2018-08-23T14:12:00.785Z,21.90
2018-08-23T14:15:05.054Z,21.90
2018-08-23T14:18:09.868Z,21.90
2018-08-23T14:21:14.145Z,21.90
2018-08-23T14:24:19.979Z,22.00
2018-08-23T14:27:24.409Z,21.90
2018-08-23T14:30:28.766Z,21.90
2018-08-23T14:33:33.157Z,21.80
2018-08-23T14:36:38.445Z,21.80
2018-08-23T14:39:43.101Z,21.70
2018-08-23T14:42:47.557Z,21.70
2018-08-23T14:45:52.078Z,21.70
2018-08-23T14:48:56.926Z,21.70
2018-08-23T14:52:01.648Z,21.70
2018-08-23T14:55:06.451Z,21.70
2018-08-23T14:58:11.891Z,21.80
2018-08-23T15:01:16.198Z,21.80
2018-08-23T15:04:20.558Z,21.80
2018-08-23T15:07:24.801Z,21.90
2018-08-23T15:10:29.123Z,21.80
2018-08-23T15:13:33.390Z,21.80
2018-08-23T15:16:37.685Z,21.90
2018-08-23T15:19:41.933Z,21.90
2018-08-23T15:22:45.304Z,21.90
2018-08-23T15:25:49.585Z,21.90
2018-08-23T15:28:53.886Z,22.00
2018-08-23T15:31:58.169Z,22.00
2018-08-23T15:35:02.570Z,22.00
2018-08-23T15:38:07.409Z,21.90
2018-08-23T15:41:11.701Z,21.80
2018-08-23T15:44:15.968Z,21.80
2018-08-23T15:47:20.334Z,21.70
2018-08-23T15:50:25.484Z,21.80
2018-08-23T15:53:29.773Z,21.80
2018-08-23T15:56:34.076Z,21.80
2018-08-23T15:59:38.328Z,21.80
2018-08-23T16:02:42.585Z,21.80
2018-08-23T16:05:46.846Z,21.80
2018-08-23T16:08:51.128Z,21.80
2018-08-23T16:11:55.357Z,21.80
2018-08-23T16:14:59.630Z,21.80
2018-08-23T16:19:11.853Z,21.70
2018-08-23T16:22:16.095Z,21.80
2018-08-23T16:25:20.373Z,21.80
2018-08-23T16:28:24.641Z,21.70
2018-08-23T16:31:28.888Z,21.80
2018-08-23T16:34:33.189Z,21.80
2018-08-23T16:37:37.545Z,21.80
2018-08-23T16:40:41.782Z,21.80
2018-08-23T16:43:46.005Z,21.80
2018-08-23T16:46:50.296Z,21.80
2018-08-23T16:49:54.597Z,21.80
2018-08-23T16:52:58.901Z,21.90
2018-08-23T16:56:03.174Z,21.80
2018-08-23T16:59:07.413Z,21.80
2018-08-23T17:02:11.652Z,21.80
2018-08-23T17:05:15.892Z,21.70
2018-08-23T17:08:20.180Z,21.70
2018-08-23T17:11:24.453Z,21.60
2018-08-23T17:14:28.773Z,21.60
2018-08-23T17:17:34.325Z,21.50
2018-08-23T17:20:38.597Z,21.50
2018-08-23T17:23:42.896Z,21.50
2018-08-23T17:26:47.323Z,21.50
2018-08-23T17:29:51.750Z,21.50
2018-08-23T17:32:56.055Z,21.40
2018-08-23T17:36:00.470Z,21.50
2018-08-23T17:39:06.469Z,21.40
2018-08-23T17:42:10.789Z,21.40
2018-08-23T17:45:15.481Z,21.40
2018-08-23T17:48:20.477Z,21.30
2018-08-23T17:51:26.059Z,21.30
2018-08-23T17:54:31.082Z,21.30
2018-08-23T17:57:35.461Z,21.20
2018-08-23T18:00:40.051Z,21.20
2018-08-23T18:03:44.620Z,21.20
2018-08-23T18:06:49.026Z,21.10
2018-08-23T18:09:53.386Z,21.10
2018-08-23T18:12:57.868Z,21.10
2018-08-23T18:16:07.473Z,20.90
2018-08-23T18:19:12.306Z,20.90
2018-08-23T18:22:16.853Z,20.90
2018-08-23T18:25:21.153Z,20.90
2018-08-23T18:28:25.373Z,20.90
2018-08-23T18:31:29.651Z,20.90
2018-08-23T18:34:33.953Z,20.90
2018-08-23T18:37:38.621Z,20.90
2018-08-23T18:40:42.834Z,20.80
2018-08-23T18:43:47.070Z,20.80
2018-08-23T18:46:51.341Z,20.90
2018-08-23T18:49:55.609Z,20.80
2018-08-23T18:52:59.905Z,20.80
2018-08-23T18:56:04.764Z,20.80
2018-08-23T18:59:09.050Z,20.70
2018-08-23T19:02:13.293Z,20.70
2018-08-23T19:05:17.568Z,20.70
2018-08-23T19:08:21.835Z,20.70
2018-08-23T19:11:26.143Z,20.70
2018-08-23T19:14:30.458Z,20.60
2018-08-23T19:17:36.276Z,20.70
2018-08-23T19:20:40.601Z,20.60
2018-08-23T19:23:44.872Z,20.60
2018-08-23T19:26:49.111Z,20.50
2018-08-23T19:29:53.338Z,20.20
2018-08-23T19:32:57.569Z,20.10
2018-08-23T19:36:01.878Z,20.00
2018-08-23T19:39:10.362Z,19.90
2018-08-23T19:42:14.614Z,19.80
2018-08-23T19:45:18.865Z,19.70
2018-08-23T19:48:23.162Z,19.70
2018-08-23T19:51:27.405Z,19.70
2018-08-23T19:54:31.637Z,19.60
2018-08-23T19:57:35.864Z,19.60
2018-08-23T20:00:40.107Z,19.60
2018-08-23T20:03:44.365Z,19.60
2018-08-23T20:06:48.695Z,19.50
2018-08-23T20:09:52.868Z,19.50
2018-08-23T20:12:57.116Z,19.50
2018-08-23T20:16:01.352Z,19.50
2018-08-23T20:19:06.002Z,19.50
2018-08-23T20:22:10.221Z,19.50
2018-08-23T20:25:14.491Z,19.50
2018-08-23T20:28:19.097Z,19.40
2018-08-23T20:31:23.369Z,19.40
2018-08-23T20:34:27.644Z,19.40
2018-08-23T20:37:31.858Z,19.40
2018-08-23T20:40:36.114Z,19.30
2018-08-23T20:43:40.329Z,19.30
2018-08-23T20:46:44.611Z,19.30
2018-08-23T20:49:48.856Z,19.30
2018-08-23T20:52:53.115Z,19.20
2018-08-23T20:55:57.353Z,19.20
2018-08-23T20:59:01.623Z,19.20
2018-08-23T21:02:05.870Z,19.30
2018-08-23T21:05:10.113Z,19.20
2018-08-23T21:08:14.365Z,19.30
2018-08-23T21:11:18.604Z,19.20
2018-08-23T21:14:22.844Z,19.20
2018-08-23T21:17:27.093Z,19.20
2018-08-23T21:20:31.333Z,19.20
2018-08-23T21:23:35.596Z,19.20
2018-08-23T21:26:39.841Z,19.20
2018-08-23T21:29:44.070Z,19.20
2018-08-23T21:32:48.302Z,19.20
2018-08-23T21:35:52.558Z,19.20
2018-08-23T21:38:56.758Z,19.20
2018-08-23T21:42:00.985Z,19.20
2018-08-23T21:45:05.296Z,19.10
2018-08-23T21:48:09.566Z,19.10
2018-08-23T21:51:13.806Z,19.00
2018-08-23T21:54:18.066Z,18.90
2018-08-23T21:57:22.479Z,18.90
2018-08-23T22:00:26.805Z,18.80
2018-08-23T22:03:31.028Z,18.70
2018-08-23T22:06:35.285Z,18.70
2018-08-23T22:09:39.558Z,18.70
2018-08-23T22:12:43.809Z,18.70
2018-08-23T22:15:48.837Z,18.80
2018-08-23T22:18:53.068Z,18.70
2018-08-23T22:21:57.280Z,18.70
2018-08-23T22:25:01.561Z,18.80
2018-08-23T22:28:06.328Z,18.70
2018-08-23T22:31:10.582Z,18.70
2018-08-23T22:34:14.824Z,18.70
2018-08-23T22:37:19.045Z,18.70
2018-08-23T22:40:23.276Z,18.70
2018-08-23T22:43:27.497Z,18.70
2018-08-23T22:46:31.733Z,18.70
2018-08-23T22:49:35.995Z,18.60
2018-08-23T22:52:40.211Z,18.60
2018-08-23T22:55:44.440Z,18.60
2018-08-23T22:58:48.704Z,18.60
2018-08-23T23:01:52.949Z,18.60
2018-08-23T23:04:57.168Z,18.60
2018-08-23T23:08:06.645Z,18.60
2018-08-23T23:11:10.860Z,18.60
2018-08-23T23:14:15.113Z,18.60
2018-08-23T23:17:19.344Z,18.60
2018-08-23T23:20:23.601Z,18.60
2018-08-23T23:23:27.821Z,18.60
2018-08-23T23:26:32.052Z,18.50
2018-08-23T23:29:36.437Z,18.50
2018-08-23T23:32:40.683Z,18.50
2018-08-23T23:35:44.906Z,18.50
2018-08-23T23:38:49.133Z,18.40
2018-08-23T23:41:53.349Z,18.50
2018-08-23T23:44:57.566Z,18.50
2018-08-23T23:48:01.793Z,18.30
2018-08-23T23:51:06.376Z,18.30
2018-08-23T23:54:10.600Z,18.20
2018-08-23T23:57:14.820Z,18.10
